Holland, Nebraska
Current Conditions -  °F | °C
As of 12:54 PM on Friday 24 Oct 2014 (Local Time) from KLNK Reporting Station
Clear Clear  
Wind Chill: 71°   Ceiling: Unl
Heat Index: 71°   Visibility: 8mi
Dew Point: 57°   Wind: 9mph
Humidity: 61%   Direction: 230°SW
Pressure: 29.95"   Gusts: NA
Location:  40.6166°N, 96.617°W
Report Text: KLNK 241754Z 23008KT 8SM CLR 22/14 A2995 RMK AO2 SLP136 T02170139 10217 20150 58003
Loading
Personal Weather Stations






























Interactive Weather Map
Tropical Storm Tracking
New forecast layout! Learn more

10-Day Weather Forecast

Advertisements
Track Severe Weather on mobile